KSLN/SLN METAR and TAF weather

Enter ICAO airport designator
Station Type Date Time Source
KSLN METAR 2021/05/14 22:53 UTC NOAA

KSLN 142253Z 15015KT 10SM BKN050 OVC065 22/14 A3003 RMK AO2 SLP163 T02170139


Station Type Date Time Source
KSLN Decoded METAR 2021/05/14 22:53 UTC NOAA

SALINA MUNICIPAL AIRPORT, KS, United States (KSLN) 38-47N 97-39W 385M
May 14, 2021 - 06:53 PM EDT / 2021.05.14 2253 UTC
Wind: from the SSE (150 degrees) at 17 MPH (15 KT):0
Visibility: 10 mile(s):0
Sky conditions: overcast
Temperature: 71.1 F (21.7 C)
Dew Point: 57.0 F (13.9 C)
Relative Humidity: 61%
Pressure (altimeter): 30.03 in. Hg (1016 hPa)
ob: KSLN 142253Z 15015KT 10SM BKN050 OVC065 22/14 A3003 RMK AO2 SLP163 T02170139
cycle: 23

Station Type Date Time Source
KSLN TAF 2021/05/14 21:24 UTC NOAA

TAF
AMD KSLN 142122Z 1421/1518 17012G18KT P6SM BKN050
FM150300 15010KT P6SM SHRA VCTS BKN040CB
FM150700 16010KT P6SM SHRA SCT008 BKN035

Example: see airport list